Time;durP1;ratioP1;P1;durP2;ratioP2;P2;SDS_P1;SDS_P2;PMS_P1;PMS_P2;Temp;Humidity;BMP_temperature;BMP_pressure;BME280_temperature;BME280_humidity;BME280_pressure;Samples;Min_cycle;Max_cycle;Signal;HPM_P1;HPM_P2
2022/12/08 00:01:58;;;;;;;7.03;4.73;;;3.70;99.90;;;-141.84;79.04;18505.22;5051394;28;20231;-60
2022/12/08 00:04:27;;;;;;;6.97;4.60;;;3.60;99.90;;;-141.84;79.13;18509.28;5051272;28;20232;-62
2022/12/08 00:09:46;;;;;;;7.23;4.83;;;3.60;99.90;;;-141.84;79.33;18531.63;5012582;28;20233;-60
2022/12/08 00:12:15;;;;;;;9.23;4.97;;;3.60;99.90;;;-141.84;79.68;18499.13;5052920;28;20216;-60
2022/12/08 00:14:48;;;;;;;10.70;6.37;;;3.60;99.90;;;-141.84;79.54;18523.50;5071823;28;20304;-61
2022/12/08 00:17:17;;;;;;;8.47;5.80;;;3.70;99.90;;;-141.84;79.10;18553.97;5070980;28;20228;-60
2022/12/08 00:19:46;;;;;;;7.50;5.80;;;3.70;99.90;;;-141.84;78.47;18531.63;5071176;28;20238;-61
2022/12/08 00:22:14;;;;;;;7.50;5.40;;;3.70;99.90;;;-141.84;78.23;18513.34;5071195;28;20240;-60
2022/12/08 00:24:45;;;;;;;6.00;5.40;;;3.70;99.90;;;-141.84;78.78;18525.53;5071463;28;20235;-60
2022/12/08 00:27:16;;;;;;;6.20;5.23;;;3.70;99.90;;;-141.84;79.17;18521.47;5071163;28;20596;-62
2022/12/08 00:29:46;;;;;;;6.87;5.13;;;3.70;99.90;;;-141.84;79.30;18547.88;5060715;28;20207;-60
2022/12/08 00:32:14;;;;;;;8.33;6.00;;;3.70;99.90;;;-141.84;79.51;18519.44;5070929;28;20690;-62
2022/12/08 00:34:43;;;;;;;7.40;6.00;;;3.60;99.90;;;-141.84;79.37;18505.22;5071066;28;20526;-60
2022/12/08 00:37:11;;;;;;;7.83;5.87;;;3.60;99.90;;;-141.84;79.93;18507.25;5071053;28;20282;-60
2022/12/08 00:39:39;;;;;;;10.90;5.77;;;3.60;99.90;;;-141.84;80.57;18495.06;5070891;28;20234;-61
2022/12/08 00:42:14;;;;;;;9.43;5.40;;;3.50;99.90;;;-141.84;81.00;18499.13;5070881;28;20196;-61
2022/12/08 00:44:44;;;;;;;7.33;5.53;;;3.40;99.90;;;-141.84;81.45;18493.03;5071513;28;20202;-60
2022/12/08 00:47:15;;;;;;;9.47;5.50;;;3.40;99.90;;;-141.84;81.74;18511.31;5071055;28;20234;-60
2022/12/08 00:49:49;;;;;;;10.17;5.90;;;3.40;99.90;;;-141.84;82.33;18480.84;5070758;28;20590;-61
2022/12/08 00:52:17;;;;;;;9.43;5.93;;;3.30;99.90;;;-141.84;82.61;18497.09;5070885;28;20228;-61
2022/12/08 00:54:45;;;;;;;9.63;5.20;;;3.30;99.90;;;-141.84;83.02;18436.16;5070786;28;20228;-60
2022/12/08 00:57:13;;;;;;;9.67;5.70;;;3.30;99.90;;;-141.84;83.29;18468.66;5070886;28;20207;-61
2022/12/08 00:59:41;;;;;;;8.43;5.50;;;3.20;99.90;;;-141.84;82.85;18484.91;5071094;28;20215;-61
2022/12/08 01:02:09;;;;;;;7.17;5.53;;;3.30;99.90;;;-141.84;82.85;18452.41;5070706;28;20224;-59
2022/12/08 01:04:39;;;;;;;6.77;5.30;;;3.30;99.90;;;-141.84;82.63;18456.47;5070488;28;20578;-61
2022/12/08 01:07:08;;;;;;;7.37;5.27;;;3.30;99.90;;;-141.84;82.45;18460.53;5071087;28;20277;-62
2022/12/08 01:09:36;;;;;;;10.47;6.03;;;3.40;99.90;;;-141.84;82.81;18484.91;5071575;28;20238;-61
2022/12/08 01:12:06;;;;;;;7.43;5.47;;;3.30;99.90;;;-141.84;82.76;18497.09;5075239;28;20254;-62
2022/12/08 01:14:34;;;;;;;10.13;5.90;;;3.40;99.90;;;-141.84;82.39;18505.22;5075289;28;20241;-60
2022/12/08 01:17:02;;;;;;;8.27;5.90;;;3.40;99.90;;;-141.84;82.41;18499.13;5074739;28;20232;-60
2022/12/08 01:19:30;;;;;;;10.43;5.73;;;3.30;99.90;;;-141.84;82.17;18488.97;5074340;28;20259;-59
2022/12/08 01:22:00;;;;;;;8.93;6.23;;;3.30;99.90;;;-141.84;82.05;18464.59;5074575;28;20639;-61
2022/12/08 01:24:28;;;;;;;6.63;5.27;;;3.30;99.90;;;-141.84;81.84;18468.66;5074241;28;20231;-59
2022/12/08 01:26:56;;;;;;;9.10;6.40;;;3.30;99.90;;;-141.84;81.97;18474.75;5074966;28;20209;-61
2022/12/08 01:29:26;;;;;;;8.20;6.00;;;3.40;99.90;;;-141.84;82.23;18513.34;5074402;28;20234;-61
2022/12/08 01:31:54;;;;;;;8.07;5.27;;;3.40;99.90;;;-141.84;81.82;18444.28;5074289;28;20228;-60
2022/12/08 01:34:22;;;;;;;9.07;6.20;;;3.30;99.90;;;-141.84;81.57;18507.25;5074392;28;20284;-61
2022/12/08 01:36:50;;;;;;;9.73;5.90;;;3.50;99.90;;;-141.84;81.96;18482.88;5074400;28;20234;-62
2022/12/08 01:39:20;;;;;;;7.07;5.60;;;3.40;99.90;;;-141.84;82.03;18482.88;5074232;28;20201;-60
2022/12/08 01:41:48;;;;;;;10.00;6.47;;;3.40;99.90;;;-141.84;82.21;18476.78;5074768;28;20195;-60
2022/12/08 01:44:54;;;;;;;9.30;6.13;;;3.30;99.90;;;-141.84;82.67;18456.47;5073937;28;20285;-61
2022/12/08 01:47:27;;;;;;;8.13;6.27;;;3.30;99.90;;;-141.84;83.20;18456.47;5073869;28;20254;-62
2022/12/08 01:49:55;;;;;;;8.50;5.97;;;3.10;99.90;;;-141.84;83.47;18454.44;5073849;28;20307;-59
2022/12/08 01:52:32;;;;;;;8.33;5.67;;;3.10;99.90;;;-141.84;83.66;18428.03;5074110;28;20220;-60
2022/12/08 01:55:08;;;;;;;7.53;6.00;;;3.10;99.90;;;-141.84;83.96;18446.31;5074295;28;20224;-60
2022/12/08 01:57:43;;;;;;;6.83;5.40;;;3.00;99.90;;;-141.84;84.14;18466.63;5073887;28;20237;-61
2022/12/08 02:00:15;;;;;;;11.13;6.00;;;3.00;99.90;;;-141.84;83.78;18474.75;5073818;28;20193;-61
2022/12/08 02:02:54;;;;;;;10.73;5.73;;;3.10;99.90;;;-141.84;83.06;18442.25;5074770;28;20187;-60
2022/12/08 02:05:28;;;;;;;10.10;5.97;;;3.10;99.90;;;-141.84;82.67;18470.69;5073908;28;20224;-62
2022/12/08 02:08:00;;;;;;;8.57;5.70;;;3.10;99.90;;;-141.84;81.47;18493.03;5073981;28;20288;-61
2022/12/08 02:10:34;;;;;;;8.10;5.33;;;3.10;99.90;;;-141.84;81.32;18505.22;5073744;28;20285;-61
2022/12/08 02:13:06;;;;;;;7.13;5.30;;;3.20;99.90;;;-141.84;81.28;18464.59;5073784;28;20235;-60
2022/12/08 02:15:46;;;;;;;9.37;6.10;;;3.20;99.90;;;-141.84;81.28;18488.97;5073575;28;20242;-64
2022/12/08 02:18:38;;;;;;;7.33;5.17;;;3.20;99.90;;;-141.84;80.97;18470.69;5073643;28;20189;-61
2022/12/08 02:21:13;;;;;;;7.77;4.87;;;3.20;99.90;;;-141.84;81.13;18454.44;5072577;28;20207;-64
2022/12/08 02:23:53;;;;;;;6.87;4.60;;;3.20;99.90;;;-141.84;80.46;18468.66;5073617;28;20188;-61
2022/12/08 02:27:25;;;;;;;6.97;4.80;;;3.20;99.90;;;-141.84;80.16;18503.19;5073265;28;20652;-61
2022/12/08 02:30:24;;;;;;;7.83;4.90;;;3.20;99.90;;;-141.84;79.52;18505.22;5041715;28;20237;-61
2022/12/08 02:33:40;;;;;;;7.20;4.87;;;3.30;99.90;;;-141.84;79.31;18486.94;5073652;28;20220;-60
2022/12/08 02:36:17;;;;;;;7.47;4.67;;;3.40;99.90;;;-141.84;78.62;18515.38;5073499;28;20304;-60
2022/12/08 02:39:00;;;;;;;5.33;4.23;;;3.40;99.90;;;-141.84;77.74;18519.44;5073844;28;20237;-61
2022/12/08 02:41:41;;;;;;;4.97;4.07;;;3.50;99.90;;;-141.84;78.19;18503.19;5053183;28;20211;-60
2022/12/08 02:44:22;;;;;;;7.93;4.97;;;3.50;99.90;;;-141.84;77.77;18529.59;5053103;28;20227;-60
2022/12/08 02:46:57;;;;;;;8.33;5.93;;;3.60;99.90;;;-141.84;76.44;18533.66;5052865;28;20225;-60
2022/12/08 02:49:30;;;;;;;8.13;4.97;;;3.70;99.90;;;-141.84;76.70;18558.03;5064391;28;20287;-61
2022/12/08 02:52:07;;;;;;;8.23;4.67;;;3.70;99.90;;;-141.84;76.88;18545.84;5052593;28;20237;-61
2022/12/08 02:54:37;;;;;;;7.63;4.73;;;3.70;99.90;;;-141.84;77.36;18521.47;5052944;28;20601;-60
2022/12/08 02:57:39;;;;;;;6.47;4.30;;;3.70;99.90;;;-141.84;77.69;18521.47;5052778;28;20225;-61
2022/12/08 03:00:12;;;;;;;6.77;4.57;;;3.70;99.90;;;-141.84;77.55;18556.00;5052359;28;20261;-62
2022/12/08 03:02:56;;;;;;;6.37;4.20;;;3.70;99.90;;;-141.84;77.09;18560.06;5053520;28;20189;-61
2022/12/08 03:05:55;;;;;;;7.73;4.53;;;3.70;99.90;;;-141.84;77.39;18505.22;5052586;28;20236;-61
2022/12/08 03:08:30;;;;;;;5.00;4.20;;;3.60;99.90;;;-141.84;77.43;18549.91;5052454;28;20260;-61
2022/12/08 03:11:09;;;;;;;6.67;4.40;;;3.70;99.90;;;-141.84;76.35;18576.31;5052345;28;20232;-60
2022/12/08 03:13:43;;;;;;;5.37;4.17;;;3.70;99.90;;;-141.84;76.21;18545.84;5052451;28;20267;-60
2022/12/08 03:16:18;;;;;;;4.87;4.00;;;3.80;99.90;;;-141.84;76.47;18556.00;5051933;28;20235;-60
2022/12/08 03:18:53;;;;;;;6.77;4.17;;;3.70;99.90;;;-141.84;76.60;18537.72;5052552;28;20231;-61
2022/12/08 03:21:23;;;;;;;6.57;4.23;;;3.70;99.90;;;-141.84;77.11;18545.84;5052116;28;20208;-60
2022/12/08 03:23:56;;;;;;;6.83;4.67;;;3.70;99.90;;;-141.84;77.32;18545.84;5052887;28;20231;-59
2022/12/08 03:26:32;;;;;;;9.93;4.37;;;3.70;99.90;;;-141.84;77.64;18545.84;5052342;28;20231;-60
2022/12/08 03:29:00;;;;;;;6.43;4.70;;;3.70;99.90;;;-141.84;77.39;18576.31;5052471;28;20220;-61
2022/12/08 03:31:35;;;;;;;8.73;4.73;;;3.60;99.90;;;-141.84;77.03;18551.94;5051793;28;20292;-61
2022/12/08 03:34:05;;;;;;;5.53;4.17;;;3.70;99.90;;;-141.84;77.15;18549.91;5051859;28;20289;-61
2022/12/08 03:36:35;;;;;;;7.03;3.97;;;3.70;99.90;;;-141.84;76.99;18553.97;5052196;28;20236;-62
2022/12/08 03:39:03;;;;;;;6.50;4.80;;;3.70;99.90;;;-141.84;77.21;18545.84;5052080;28;20287;-61
2022/12/08 03:41:31;;;;;;;6.03;4.40;;;3.70;99.90;;;-141.84;77.37;18537.72;5052566;28;20206;-61
2022/12/08 03:43:59;;;;;;;5.77;4.30;;;3.70;99.90;;;-141.84;77.66;18560.06;5051686;28;20224;-62
2022/12/08 03:46:31;;;;;;;6.23;4.30;;;3.60;99.90;;;-141.84;78.14;18499.13;5051617;28;20294;-61
2022/12/08 03:48:59;;;;;;;7.03;3.80;;;3.50;99.90;;;-141.84;78.27;18533.66;5051900;28;20644;-61
2022/12/08 03:51:27;;;;;;;7.47;4.57;;;3.50;99.90;;;-141.84;78.75;18505.22;5051648;28;20231;-61
2022/12/08 03:53:57;;;;;;;6.73;4.20;;;3.40;99.90;;;-141.84;78.09;18543.81;5052100;28;20225;-61
2022/12/08 03:56:28;;;;;;;6.90;4.00;;;3.40;99.90;;;-141.84;78.06;18505.22;5051611;28;20255;-61
2022/12/08 03:58:57;;;;;;;5.53;4.33;;;3.30;99.90;;;-141.84;78.62;18519.44;5051881;28;20231;-61
2022/12/08 04:01:26;;;;;;;6.80;4.70;;;3.30;99.90;;;-141.84;78.65;18499.13;5051807;28;20257;-60
2022/12/08 04:03:55;;;;;;;7.57;4.77;;;3.30;99.90;;;-141.84;78.82;18525.53;5051674;28;20237;-61
2022/12/08 04:06:24;;;;;;;8.00;5.03;;;3.30;99.90;;;-141.84;77.39;18543.81;5051478;28;20606;-61
2022/12/08 04:08:52;;;;;;;6.43;4.37;;;3.30;99.90;;;-141.84;78.08;18527.56;5051886;28;20738;-61
2022/12/08 04:11:22;;;;;;;5.23;4.57;;;3.30;99.90;;;-141.84;78.18;18551.94;5051334;28;20306;-60
2022/12/08 04:13:50;;;;;;;8.80;5.30;;;3.30;99.90;;;-141.84;78.25;18560.06;5047568;28;20264;-61
2022/12/08 04:16:21;;;;;;;5.47;4.73;;;3.30;99.90;;;-141.84;78.45;18511.31;5042523;28;20229;-62
2022/12/08 04:18:50;;;;;;;6.90;5.03;;;3.30;99.90;;;-141.84;78.19;18515.38;5051585;28;20254;-61
2022/12/08 04:21:19;;;;;;;7.10;4.87;;;3.30;99.90;;;-141.84;77.67;18549.91;5051189;28;20651;-60
2022/12/08 04:23:48;;;;;;;7.43;4.60;;;3.30;99.90;;;-141.84;78.19;18521.47;5051958;28;20585;-61
2022/12/08 04:26:16;;;;;;;6.03;5.13;;;3.20;99.90;;;-141.84;78.43;18537.72;5051318;28;20258;-61
2022/12/08 04:28:46;;;;;;;7.60;5.53;;;3.20;99.90;;;-141.84;78.57;18513.34;5051127;28;20233;-61
2022/12/08 04:31:14;;;;;;;5.97;4.80;;;3.20;99.90;;;-141.84;78.41;18568.19;5051249;28;20230;-60
2022/12/08 04:33:43;;;;;;;7.47;5.30;;;3.20;99.90;;;-141.84;78.79;18501.16;5051119;28;20250;-62
2022/12/08 04:36:11;;;;;;;8.53;5.00;;;3.20;99.90;;;-141.84;77.90;18533.66;5050926;28;20205;-60
2022/12/08 04:38:39;;;;;;;7.23;5.00;;;3.30;99.90;;;-141.84;77.87;18533.66;5051596;28;20210;-60
2022/12/08 04:41:07;;;;;;;7.90;5.30;;;3.30;99.90;;;-141.84;77.98;18535.69;5051317;28;20626;-61
2022/12/08 04:43:36;;;;;;;7.13;4.63;;;3.30;99.90;;;-141.84;78.43;18499.13;5050530;28;20285;-60
2022/12/08 04:46:08;;;;;;;7.17;6.03;;;3.20;99.90;;;-141.84;78.68;18501.16;5051198;28;20228;-60
2022/12/08 04:48:39;;;;;;;6.13;4.87;;;3.20;99.90;;;-141.84;78.75;18517.41;5052003;28;20289;-60
2022/12/08 04:51:14;;;;;;;8.13;5.23;;;3.20;99.90;;;-141.84;79.17;18517.41;5051111;28;20196;-61
2022/12/08 04:53:43;;;;;;;7.77;6.07;;;3.20;99.90;;;-141.84;79.42;18482.88;5050974;28;20660;-61
2022/12/08 04:56:14;;;;;;;7.37;5.20;;;3.20;99.90;;;-141.84;78.84;18499.13;5051032;28;20239;-60
2022/12/08 04:58:43;;;;;;;8.73;6.13;;;3.20;99.90;;;-141.84;77.99;18525.53;5050657;28;20696;-61
2022/12/08 05:01:13;;;;;;;8.03;6.27;;;3.30;99.90;;;-141.84;78.45;18517.41;5050719;28;20748;-61
2022/12/08 05:03:41;;;;;;;7.00;5.27;;;3.20;99.90;;;-141.84;77.97;18578.38;5050736;28;20246;-61
2022/12/08 05:06:13;;;;;;;11.73;6.07;;;3.30;99.90;;;-141.84;76.87;18558.03;5050996;28;20239;-60
2022/12/08 05:08:42;;;;;;;7.00;5.50;;;3.40;99.90;;;-141.84;77.81;18574.28;5050972;28;20190;-60
2022/12/08 05:11:13;;;;;;;11.17;7.77;;;3.30;99.90;;;-141.84;77.99;18521.47;5050414;28;20295;-61
2022/12/08 05:13:41;;;;;;;12.67;9.70;;;3.30;99.90;;;-141.84;78.08;18564.13;5050418;28;20232;-60
2022/12/08 05:16:14;;;;;;;7.43;6.17;;;3.40;99.90;;;-141.84;78.27;18531.63;5050718;28;20229;-60
2022/12/08 05:18:43;;;;;;;7.63;5.80;;;3.30;99.90;;;-141.84;77.58;18537.72;5050748;28;20250;-61
2022/12/08 05:21:11;;;;;;;7.67;5.93;;;3.40;99.90;;;-141.84;78.15;18533.66;5050501;28;20199;-60
2022/12/08 05:23:39;;;;;;;8.10;5.70;;;3.40;99.90;;;-141.84;78.16;18545.84;5051061;28;20246;-60
2022/12/08 05:26:08;;;;;;;8.60;6.03;;;3.40;99.90;;;-141.84;78.18;18553.97;5050525;28;20789;-60
2022/12/08 05:28:36;;;;;;;7.50;6.00;;;3.40;99.90;;;-141.84;78.49;18531.63;5050339;28;20706;-60
2022/12/08 05:31:11;;;;;;;9.47;6.30;;;3.40;99.90;;;-141.84;78.45;18533.66;5050838;28;20311;-61
2022/12/08 05:33:40;;;;;;;7.60;5.93;;;3.40;99.90;;;-141.84;78.22;18547.88;5050351;28;20320;-60
2022/12/08 05:36:09;;;;;;;8.73;6.87;;;3.40;99.90;;;-141.84;78.46;18517.41;5050536;28;20208;-60
2022/12/08 05:38:38;;;;;;;9.60;6.33;;;3.40;99.90;;;-141.84;78.42;18529.59;5050650;28;20204;-61
2022/12/08 05:41:07;;;;;;;8.43;5.80;;;3.50;99.90;;;-141.84;77.39;18558.03;5050423;28;20220;-61
2022/12/08 05:43:35;;;;;;;7.17;6.03;;;3.50;99.90;;;-141.84;77.17;18562.09;5050116;28;20247;-62
2022/12/08 05:46:03;;;;;;;10.93;6.77;;;3.60;99.90;;;-141.84;76.99;18576.31;5050445;28;20235;-60
2022/12/08 05:48:34;;;;;;;11.37;6.60;;;3.50;99.90;;;-141.84;77.14;18586.50;5049938;28;20244;-60
2022/12/08 05:51:02;;;;;;;9.00;6.00;;;3.50;99.90;;;-141.84;76.74;18558.03;5050555;28;20215;-61
2022/12/08 05:53:31;;;;;;;9.07;6.87;;;3.60;99.90;;;-141.84;77.62;18543.81;5050647;28;20212;-60
2022/12/08 05:55:59;;;;;;;9.37;6.73;;;3.50;99.90;;;-141.84;77.02;18529.59;5051366;28;20636;-61
2022/12/08 05:58:27;;;;;;;8.37;6.57;;;3.50;99.90;;;-141.84;76.95;18562.09;5053903;28;20233;-61
2022/12/08 06:00:55;;;;;;;8.40;6.57;;;3.50;99.90;;;-141.84;77.48;18519.44;5053810;28;20926;-62
2022/12/08 06:03:23;;;;;;;7.93;6.20;;;3.50;99.90;;;-141.84;78.28;18564.13;5053980;28;20217;-60
2022/12/08 06:05:53;;;;;;;10.10;6.50;;;3.50;99.90;;;-141.84;78.15;18525.53;5054484;28;20209;-62
2022/12/08 06:08:21;;;;;;;9.83;6.60;;;3.40;99.90;;;-141.84;78.07;18551.94;5053384;28;20250;-61
2022/12/08 06:10:49;;;;;;;7.50;6.10;;;3.30;99.90;;;-141.84;77.87;18590.56;5053890;28;20650;-61
2022/12/08 06:13:18;;;;;;;9.70;6.67;;;3.20;99.90;;;-141.84;77.44;18568.19;5053770;28;20240;-62
2022/12/08 06:15:46;;;;;;;12.17;6.50;;;3.40;99.90;;;-141.84;77.44;18539.75;5053629;28;20316;-62
2022/12/08 06:18:14;;;;;;;10.70;6.30;;;3.30;99.90;;;-141.84;78.31;18553.97;5053496;28;20213;-62
2022/12/08 06:20:42;;;;;;;9.43;6.03;;;3.30;99.90;;;-141.84;78.18;18529.59;5054167;28;20238;-61
2022/12/08 06:23:11;;;;;;;8.53;6.43;;;3.20;99.90;;;-141.84;79.08;18562.09;5053447;28;20634;-62
2022/12/08 06:25:39;;;;;;;8.70;6.50;;;3.10;99.90;;;-141.84;79.35;18525.53;5053335;28;20293;-61
2022/12/08 06:28:07;;;;;;;8.23;6.80;;;3.10;99.90;;;-141.84;79.81;18503.19;5053396;28;20233;-60
2022/12/08 06:30:37;;;;;;;9.33;5.87;;;3.00;99.90;;;-141.84;80.08;18491.00;5053199;28;20232;-60
2022/12/08 06:33:05;;;;;;;10.00;7.03;;;3.00;99.90;;;-141.84;80.09;18523.50;5053538;28;20203;-62
2022/12/08 06:35:33;;;;;;;10.37;6.40;;;2.90;99.90;;;-141.84;80.34;18499.13;5053614;28;20694;-62
2022/12/08 06:38:01;;;;;;;8.20;6.57;;;2.80;99.90;;;-141.84;80.42;18513.34;5053005;28;20622;-62
2022/12/08 06:40:31;;;;;;;8.40;6.60;;;2.90;99.90;;;-141.84;79.72;18515.38;5052917;28;20625;-62
2022/12/08 06:42:59;;;;;;;9.97;7.00;;;2.90;99.90;;;-141.84;79.06;18543.81;5053005;28;20232;-63
2022/12/08 06:45:27;;;;;;;8.70;6.13;;;3.00;99.90;;;-141.84;78.80;18493.03;5052584;28;20267;-63
2022/12/08 06:47:55;;;;;;;9.03;6.40;;;3.00;99.90;;;-141.84;79.71;18503.19;5053341;28;20228;-62
2022/12/08 06:50:24;;;;;;;7.70;6.67;;;2.80;99.90;;;-141.84;78.75;18553.97;5052724;28;20213;-61
2022/12/08 06:52:52;;;;;;;8.10;6.60;;;2.90;99.90;;;-141.84;78.78;18513.34;5052726;28;20225;-62
2022/12/08 06:55:34;;;;;;;8.73;6.20;;;2.90;99.90;;;-141.84;79.98;18523.50;5052585;28;20568;-62
2022/12/08 06:58:22;;;;;;;8.70;6.40;;;2.80;99.90;;;-141.84;80.55;18493.03;5052557;28;20286;-63
2022/12/08 07:00:50;;;;;;;8.67;6.90;;;2.70;99.90;;;-141.84;80.53;18493.03;5052628;28;20237;-61
2022/12/08 07:03:18;;;;;;;8.90;7.13;;;2.70;99.90;;;-141.84;80.69;18488.97;5052777;28;20215;-64
2022/12/08 07:05:46;;;;;;;10.20;6.70;;;2.70;99.90;;;-141.84;80.25;18507.25;5052848;28;20567;-62
2022/12/08 07:08:15;;;;;;;8.73;6.73;;;2.70;99.90;;;-141.84;80.19;18505.22;5052439;28;20252;-62
2022/12/08 07:10:44;;;;;;;8.60;6.17;;;2.80;99.90;;;-141.84;80.13;18513.34;5052863;28;20320;-64
2022/12/08 07:13:12;;;;;;;9.57;6.93;;;2.80;99.90;;;-141.84;79.12;18525.53;5053197;28;20568;-62
2022/12/08 07:15:40;;;;;;;8.13;6.60;;;2.90;99.90;;;-141.84;78.36;18519.44;5052196;28;20263;-62
2022/12/08 07:18:09;;;;;;;9.40;6.87;;;2.90;99.90;;;-141.84;78.54;18529.59;5052724;28;20211;-62
2022/12/08 07:20:37;;;;;;;9.60;7.27;;;3.00;99.90;;;-141.84;78.38;18521.47;5052478;28;20204;-62
2022/12/08 07:23:05;;;;;;;9.33;7.13;;;2.90;99.90;;;-141.84;78.48;18527.56;5052279;28;20278;-62
2022/12/08 07:25:33;;;;;;;10.10;7.07;;;3.00;99.90;;;-141.84;78.11;18529.59;5052057;28;20225;-61
2022/12/08 07:28:09;;;;;;;11.97;7.73;;;3.10;99.90;;;-141.84;78.09;18564.13;5052447;28;20229;-62
2022/12/08 07:30:38;;;;;;;9.60;7.20;;;3.10;99.90;;;-141.84;78.38;18513.34;5051948;28;20233;-62
2022/12/08 07:33:06;;;;;;;8.60;7.23;;;3.10;99.90;;;-141.84;78.39;18535.69;5052136;28;20704;-62
2022/12/08 07:35:34;;;;;;;8.07;6.57;;;3.10;99.90;;;-141.84;78.14;18556.00;5052217;28;20281;-61
2022/12/08 07:38:03;;;;;;;9.40;7.00;;;3.20;99.90;;;-141.84;77.38;18574.28;5051711;28;20221;-65
2022/12/08 07:40:31;;;;;;;9.23;7.03;;;3.30;99.90;;;-141.84;77.52;18576.31;5051697;28;20225;-63
2022/12/08 07:42:59;;;;;;;10.30;6.87;;;3.30;99.90;;;-141.84;77.50;18580.41;5051733;28;20283;-64
2022/12/08 07:45:28;;;;;;;9.70;6.77;;;3.40;99.90;;;-141.84;77.19;18574.28;5051383;28;20281;-63
2022/12/08 07:47:58;;;;;;;8.00;6.53;;;3.40;99.90;;;-141.84;77.51;18537.72;5052157;28;20323;-62
2022/12/08 07:50:27;;;;;;;10.03;7.00;;;3.50;99.90;;;-141.84;76.01;18547.88;5051899;28;20234;-64
2022/12/08 07:52:55;;;;;;;9.47;6.50;;;3.50;99.90;;;-141.84;75.71;18586.50;5051644;28;20716;-63
2022/12/08 07:55:23;;;;;;;10.37;6.83;;;3.60;99.90;;;-141.84;75.69;18594.63;5051662;28;20236;-66
2022/12/08 07:57:51;;;;;;;9.57;7.10;;;3.60;99.90;;;-141.84;76.33;18572.25;5051333;28;20240;-62
2022/12/08 08:00:21;;;;;;;9.07;6.97;;;3.70;99.90;;;-141.84;76.82;18580.41;5048915;28;20646;-64
2022/12/08 08:02:50;;;;;;;9.57;6.77;;;3.70;99.90;;;-141.84;76.83;18580.41;5031947;28;20733;-61
2022/12/08 08:05:19;;;;;;;8.60;6.93;;;3.60;99.90;;;-141.84;76.32;18570.22;5031134;28;20241;-63
2022/12/08 08:07:47;;;;;;;8.57;6.07;;;3.60;99.90;;;-141.84;76.07;18582.44;5031464;28;20309;-63
2022/12/08 08:10:15;;;;;;;8.27;6.77;;;3.60;99.90;;;-141.84;76.19;18570.22;5031210;28;20233;-62
2022/12/08 08:12:43;;;;;;;10.00;6.60;;;3.70;99.90;;;-141.84;76.16;18572.25;5031122;28;20624;-63
2022/12/08 08:15:12;;;;;;;8.83;6.60;;;3.70;99.90;;;-141.84;76.61;18576.31;5030970;28;20654;-62
2022/12/08 08:17:40;;;;;;;10.40;7.23;;;3.70;99.90;;;-141.84;76.37;18584.47;5031389;28;20739;-63
2022/12/08 08:20:11;;;;;;;7.40;6.00;;;3.70;99.90;;;-141.84;75.86;18604.78;5030828;28;20240;-65
2022/12/08 08:22:39;;;;;;;8.60;6.50;;;3.80;99.90;;;-141.84;75.29;18602.75;5031277;28;20236;-64
2022/12/08 08:25:09;;;;;;;8.70;7.10;;;3.80;99.90;;;-141.84;75.37;18616.97;5031265;28;20291;-64
2022/12/08 08:27:37;;;;;;;8.80;6.60;;;3.90;99.90;;;-141.84;75.81;18588.53;5031161;28;20282;-64
2022/12/08 08:30:07;;;;;;;11.87;6.50;;;4.00;99.90;;;-141.84;76.01;18586.50;5031220;28;20256;-64
2022/12/08 08:32:36;;;;;;;8.90;6.50;;;4.10;99.90;;;-141.84;75.56;18608.84;5031356;28;20187;-63
2022/12/08 08:35:06;;;;;;;8.17;6.20;;;4.10;99.90;;;-141.84;74.52;18594.63;5030844;28;20239;-64
2022/12/08 08:37:35;;;;;;;8.37;6.20;;;4.20;99.90;;;-141.84;73.52;18614.94;5030871;28;20221;-64
2022/12/08 08:40:04;;;;;;;10.37;6.50;;;4.40;99.90;;;-141.84;72.85;18651.50;5030863;28;20225;-63
2022/12/08 08:42:33;;;;;;;8.97;5.93;;;4.30;99.90;;;-141.84;73.27;18635.25;5030930;28;20229;-63
2022/12/08 08:45:01;;;;;;;7.30;6.03;;;4.30;99.90;;;-141.84;72.92;18667.75;5030849;28;20677;-64
2022/12/08 08:47:29;;;;;;;8.57;5.97;;;4.30;99.90;;;-141.84;71.94;18651.50;5030446;28;20222;-64
2022/12/08 08:49:57;;;;;;;7.20;5.30;;;4.50;99.90;;;-141.84;71.68;18681.97;5030735;28;20229;-64
2022/12/08 08:52:25;;;;;;;7.43;5.70;;;4.70;99.90;;;-141.84;71.42;18679.94;5030817;28;20237;-63
2022/12/08 08:54:55;;;;;;;6.43;5.53;;;4.70;99.90;;;-141.84;70.71;18704.31;5030669;28;20238;-62
2022/12/08 08:57:23;;;;;;;6.30;5.20;;;4.80;99.90;;;-141.84;70.64;18686.03;5030698;28;20262;-63
2022/12/08 08:59:53;;;;;;;6.63;5.20;;;4.90;99.90;;;-141.84;69.87;18718.56;5031250;28;20182;-63
2022/12/08 09:02:22;;;;;;;6.60;5.50;;;5.00;99.90;;;-141.84;69.96;18724.66;5030475;28;20802;-64
2022/12/08 09:04:50;;;;;;;5.93;4.87;;;5.00;99.90;;;-141.84;70.10;18671.81;5030818;28;20229;-64
2022/12/08 09:07:18;;;;;;;7.37;5.17;;;4.80;99.90;;;-141.84;70.23;18747.00;5030422;28;20222;-63
2022/12/08 09:09:46;;;;;;;5.83;4.83;;;4.90;99.90;;;-141.84;70.11;18736.84;5030796;28;20256;-63
2022/12/08 09:12:16;;;;;;;5.73;4.30;;;5.00;99.90;;;-141.84;69.72;18720.59;5030265;28;20577;-64
2022/12/08 09:14:44;;;;;;;4.97;4.47;;;5.00;99.90;;;-141.84;69.55;18718.56;5031061;28;20213;-62
2022/12/08 09:17:13;;;;;;;7.27;5.10;;;5.10;99.90;;;-141.84;69.57;18726.69;5030294;28;20654;-64
2022/12/08 09:19:41;;;;;;;7.70;4.50;;;5.10;99.90;;;-141.84;69.08;18712.47;5030049;28;20280;-64
2022/12/08 09:22:09;;;;;;;5.77;5.03;;;5.10;99.90;;;-141.84;68.13;18783.56;5030434;28;20927;-64
2022/12/08 09:24:37;;;;;;;5.90;4.70;;;5.10;99.90;;;-141.84;68.27;18763.25;5030672;28;20295;-64
2022/12/08 09:27:05;;;;;;;6.57;5.10;;;5.20;99.90;;;-141.84;68.95;18755.13;5030684;28;20592;-64
2022/12/08 09:29:35;;;;;;;6.40;5.27;;;5.10;99.90;;;-141.84;68.87;18757.16;5030858;28;20578;-65
2022/12/08 09:32:04;;;;;;;6.07;5.03;;;5.10;99.90;;;-141.84;69.43;18747.00;5033428;28;20616;-63
2022/12/08 09:34:32;;;;;;;6.97;5.17;;;5.20;99.90;;;-141.84;69.55;18749.03;5034362;28;20284;-64
2022/12/08 09:37:00;;;;;;;8.47;5.30;;;5.20;99.90;;;-141.84;69.38;18744.97;5034146;28;20256;-63
2022/12/08 09:39:28;;;;;;;7.17;5.67;;;5.20;99.90;;;-141.84;69.79;18742.94;5034366;28;20225;-64
2022/12/08 09:42:01;;;;;;;6.60;5.63;;;5.20;99.90;;;-141.84;69.69;18722.63;5034806;28;20205;-65
2022/12/08 09:45:00;;;;;;;7.50;5.70;;;5.20;99.90;;;-141.84;68.44;18744.97;5034338;28;20218;-64
2022/12/08 09:47:35;;;;;;;6.57;5.70;;;5.30;99.90;;;-141.84;69.19;18724.66;5033156;28;20226;-65
2022/12/08 09:50:11;;;;;;;6.20;5.17;;;5.30;99.90;;;-141.84;69.24;18757.16;5050617;28;20241;-62
2022/12/08 09:52:47;;;;;;;7.80;5.87;;;5.40;99.90;;;-141.84;68.98;18751.06;5053665;28;20229;-64
2022/12/08 09:55:24;;;;;;;6.50;5.50;;;5.40;99.90;;;-141.84;67.24;18818.09;5043874;28;20268;-64
2022/12/08 09:58:03;;;;;;;6.60;6.00;;;5.50;99.90;;;-141.84;67.67;18749.03;5034123;28;20237;-63
2022/12/08 10:00:34;;;;;;;8.27;6.33;;;5.60;99.90;;;-141.84;66.87;18834.38;5033692;28;20233;-64
2022/12/08 10:03:02;;;;;;;8.43;6.00;;;5.70;99.90;;;-141.84;66.76;18767.31;5033942;28;20237;-64
2022/12/08 10:05:37;;;;;;;7.97;6.27;;;5.70;99.90;;;-141.84;66.68;18818.09;5034032;28;20595;-64
2022/12/08 10:08:18;;;;;;;8.03;6.47;;;5.70;99.90;;;-141.84;66.40;18836.41;5033677;28;20225;-65
2022/12/08 10:10:55;;;;;;;8.07;6.83;;;5.70;99.90;;;-141.84;66.96;18826.25;5033525;28;20678;-64
2022/12/08 10:13:37;;;;;;;7.33;6.50;;;5.70;99.90;;;-141.84;66.42;18826.25;5033607;28;20282;-64
2022/12/08 10:16:22;;;;;;;9.37;6.97;;;5.70;99.90;;;-141.84;67.35;18791.69;5033208;28;20767;-62
2022/12/08 10:19:10;;;;;;;9.67;7.67;;;5.70;99.90;;;-141.84;65.81;18836.41;5033766;28;20232;-64
2022/12/08 10:21:40;;;;;;;7.63;6.63;;;6.00;99.90;;;-141.84;66.77;18870.94;5033632;28;20265;-63
2022/12/08 10:24:24;;;;;;;9.33;6.57;;;5.90;99.90;;;-141.84;66.18;18872.97;5033318;28;20210;-64
2022/12/08 10:26:54;;;;;;;8.27;6.97;;;5.90;99.90;;;-141.84;65.73;18852.66;5033909;28;20259;-64
2022/12/08 10:29:22;;;;;;;7.90;7.03;;;5.90;99.90;;;-141.84;66.07;18834.38;5033002;28;20233;-64
2022/12/08 10:31:51;;;;;;;10.20;7.23;;;5.80;99.90;;;-141.84;65.57;18820.16;5033383;28;20295;-64
2022/12/08 10:34:23;;;;;;;8.07;6.67;;;5.80;99.90;;;-141.84;66.72;18805.91;5033299;28;20233;-64